Time;durP1;ratioP1;P1;durP2;ratioP2;P2;SDS_P1;SDS_P2;PMS_P1;PMS_P2;Temp;Humidity;BMP_temperature;BMP_pressure;BME280_temperature;BME280_humidity;BME280_pressure;Samples;Min_cycle;Max_cycle;Signal;HPM_P1;HPM_P2
2023/07/06 00:01:27;;;;;;;1.87;1.63;;;18.00;98.00;;;;;;4893844;29;20451;-82
2023/07/06 00:03:57;;;;;;;2.40;2.17;;;18.10;97.90;;;;;;4898139;29;20467;-82
2023/07/06 00:06:28;;;;;;;2.23;2.00;;;18.10;97.60;;;;;;4874391;29;20455;-83
2023/07/06 00:08:55;;;;;;;2.70;1.80;;;18.00;97.60;;;;;;4882432;29;20472;-83
2023/07/06 00:11:32;;;;;;;2.90;1.73;;;17.90;97.70;;;;;;4895555;29;20447;-83
2023/07/06 00:14:00;;;;;;;2.30;2.10;;;17.90;97.80;;;;;;4899991;29;20447;-83
2023/07/06 00:16:29;;;;;;;2.03;1.57;;;17.90;97.50;;;;;;4895004;29;20484;-82
2023/07/06 00:18:58;;;;;;;2.73;1.67;;;18.00;97.40;;;;;;4888173;29;20492;-84
2023/07/06 00:21:27;;;;;;;1.87;1.60;;;17.90;97.40;;;;;;4886994;29;20444;-85
2023/07/06 00:23:58;;;;;;;1.63;1.50;;;17.90;97.30;;;;;;4890208;29;20468;-82
2023/07/06 00:26:27;;;;;;;4.10;2.17;;;17.70;97.40;;;;;;4905112;29;20483;-85
2023/07/06 00:28:55;;;;;;;3.40;2.10;;;17.80;97.40;;;;;;4942248;23;20490;-86
2023/07/06 00:31:32;;;;;;;2.53;2.00;;;17.60;97.50;;;;;;4893105;29;20454;-82
2023/07/06 00:34:04;;;;;;;2.20;2.00;;;17.60;97.90;;;;;;4883424;29;21276;-84
2023/07/06 00:36:35;;;;;;;1.83;1.60;;;17.70;97.70;;;;;;4854092;29;20547;-84
2023/07/06 00:39:03;;;;;;;2.63;2.00;;;17.60;97.70;;;;;;4856903;29;20576;-82
2023/07/06 00:41:32;;;;;;;1.70;1.57;;;17.50;98.10;;;;;;4869376;29;20458;-84
2023/07/06 00:44:04;;;;;;;2.60;2.17;;;17.40;98.60;;;;;;4875338;29;20442;-83
2023/07/06 00:46:40;;;;;;;2.40;2.20;;;17.40;98.80;;;;;;4858754;29;20638;-83
2023/07/06 00:49:15;;;;;;;2.50;1.77;;;17.50;98.60;;;;;;4858061;29;20471;-83
2023/07/06 00:51:45;;;;;;;2.10;2.00;;;17.70;97.70;;;;;;4862071;29;20544;-85
2023/07/06 00:54:17;;;;;;;2.43;1.97;;;17.80;97.20;;;;;;4884129;29;20460;-83
2023/07/06 00:56:52;;;;;;;3.00;2.47;;;17.80;97.20;;;;;;4860607;29;20489;-82
2023/07/06 00:59:26;;;;;;;2.73;2.00;;;17.70;97.30;;;;;;4873514;29;20512;-82
2023/07/06 01:02:00;;;;;;;3.80;2.50;;;17.70;97.40;;;;;;4874241;29;21089;-83
2023/07/06 01:04:30;;;;;;;2.10;2.00;;;17.60;97.60;;;;;;4858052;29;20488;-84
2023/07/06 01:07:01;;;;;;;2.37;2.17;;;17.40;97.80;;;;;;4868121;29;20461;-84
2023/07/06 01:09:29;;;;;;;2.43;2.27;;;17.40;98.00;;;;;;4866573;29;20472;-83
2023/07/06 01:11:57;;;;;;;3.73;2.20;;;17.30;98.10;;;;;;4865060;29;20483;-84
2023/07/06 01:14:26;;;;;;;2.37;2.20;;;17.30;98.30;;;;;;4854777;29;20773;-83
2023/07/06 01:17:08;;;;;;;2.40;2.10;;;17.20;98.30;;;;;;4855984;29;20468;-84
2023/07/06 01:20:04;;;;;;;4.97;2.20;;;17.10;98.60;;;;;;4849571;29;21423;-84
2023/07/06 01:22:52;;;;;;;4.50;2.33;;;17.00;98.60;;;;;;4857124;29;20503;-82
2023/07/06 01:25:35;;;;;;;3.50;2.60;;;17.00;98.70;;;;;;4865359;29;20509;-84
2023/07/06 01:28:59;;;;;;;3.70;2.33;;;17.00;98.70;;;;;;4865740;29;20453;-82
2023/07/06 01:31:46;;;;;;;2.40;2.00;;;16.90;98.70;;;;;;4797112;29;20457;-84
2023/07/06 01:34:41;;;;;;;2.17;1.97;;;16.90;98.90;;;;;;4797046;29;20669;-82
2023/07/06 01:37:22;;;;;;;2.73;1.97;;;16.90;98.90;;;;;;4865667;29;20505;-84
2023/07/06 01:39:50;;;;;;;2.70;2.50;;;16.90;99.00;;;;;;4875368;29;20493;-82
2023/07/06 01:42:31;;;;;;;2.40;1.90;;;16.90;99.10;;;;;;4874888;29;20528;-81
2023/07/06 01:45:11;;;;;;;3.60;2.80;;;16.90;98.80;;;;;;4875095;29;20464;-84
2023/07/06 01:47:43;;;;;;;3.17;2.20;;;16.90;98.80;;;;;;4877666;29;20466;-81
2023/07/06 01:50:12;;;;;;;2.60;2.30;;;16.80;98.90;;;;;;4880364;29;20460;-82
2023/07/06 01:52:53;;;;;;;3.47;2.17;;;16.90;99.00;;;;;;4878148;29;20457;-83
2023/07/06 01:55:23;;;;;;;3.00;2.47;;;17.00;98.70;;;;;;4882017;29;20502;-82
2023/07/06 01:58:06;;;;;;;4.00;2.13;;;16.90;98.20;;;;;;4883877;29;20453;-84
2023/07/06 02:00:37;;;;;;;2.60;2.03;;;16.70;98.40;;;;;;4886270;29;20521;-84
2023/07/06 02:03:08;;;;;;;2.23;2.00;;;16.80;98.70;;;;;;4880694;29;20474;-85
2023/07/06 02:05:37;;;;;;;2.40;2.20;;;16.80;98.40;;;;;;4873389;29;20461;-84
2023/07/06 02:08:08;;;;;;;2.87;2.17;;;16.90;98.40;;;;;;4875736;29;20473;-85
2023/07/06 02:10:35;;;;;;;3.60;2.57;;;16.70;98.10;;;;;;4879057;29;20468;-83
2023/07/06 02:13:03;;;;;;;3.30;2.30;;;16.60;98.30;;;;;;4874660;29;20471;-86
2023/07/06 02:15:31;;;;;;;3.53;2.73;;;16.60;98.50;;;;;;4879925;29;20500;-83
2023/07/06 02:17:57;;;;;;;2.43;2.00;;;16.60;98.70;;;;;;4887172;29;20528;-83
2023/07/06 02:20:25;;;;;;;3.00;2.40;;;16.60;98.20;;;;;;4880963;29;20571;-84
2023/07/06 02:22:51;;;;;;;2.53;2.03;;;16.60;97.60;;;;;;4875900;29;20465;-83
2023/07/06 02:25:20;;;;;;;3.60;2.60;;;16.50;97.90;;;;;;4858939;29;20560;-84
2023/07/06 02:27:47;;;;;;;2.70;1.90;;;16.80;97.60;;;;;;4877578;29;20463;-84
2023/07/06 02:30:14;;;;;;;3.20;2.10;;;16.80;97.00;;;;;;4871333;29;20477;-85
2023/07/06 02:32:41;;;;;;;4.57;2.50;;;16.80;96.90;;;;;;4860924;29;20463;-84
2023/07/06 02:35:10;;;;;;;3.50;1.90;;;16.80;96.80;;;;;;4851621;29;20501;-85
2023/07/06 02:37:38;;;;;;;3.27;2.17;;;16.70;96.70;;;;;;4858467;29;20436;-85
2023/07/06 02:40:08;;;;;;;2.10;1.90;;;16.50;96.70;;;;;;4871218;29;20499;-85
2023/07/06 02:42:35;;;;;;;3.13;2.20;;;16.50;96.80;;;;;;4869466;29;20533;-85
2023/07/06 02:45:05;;;;;;;3.33;2.80;;;16.50;96.70;;;;;;4869341;29;20453;-84
2023/07/06 02:47:32;;;;;;;2.23;2.03;;;16.50;96.80;;;;;;4872660;29;20429;-83
2023/07/06 02:49:59;;;;;;;3.03;2.03;;;16.50;96.80;;;;;;4855845;29;20453;-84
2023/07/06 02:52:27;;;;;;;2.23;1.87;;;16.50;96.80;;;;;;4865364;29;20468;-82
2023/07/06 02:54:54;;;;;;;2.67;2.00;;;16.40;96.80;;;;;;4867979;29;20456;-85
2023/07/06 02:57:21;;;;;;;2.90;1.80;;;16.40;96.90;;;;;;4853583;29;20455;-85
2023/07/06 02:59:48;;;;;;;5.73;2.30;;;16.30;97.00;;;;;;4867870;29;20488;-85
2023/07/06 03:02:15;;;;;;;2.93;2.23;;;16.10;97.10;;;;;;4866207;29;20473;-84
2023/07/06 03:04:42;;;;;;;2.57;1.80;;;16.10;97.50;;;;;;4865573;29;22566;-85
2023/07/06 03:07:09;;;;;;;2.40;2.20;;;16.20;97.50;;;;;;4857014;29;20908;-84
2023/07/06 03:09:36;;;;;;;7.93;2.50;;;16.30;97.00;;;;;;4854024;29;20527;-85
2023/07/06 03:12:05;;;;;;;3.03;1.83;;;16.30;96.80;;;;;;4866764;29;22116;-84
2023/07/06 03:14:33;;;;;;;3.50;2.07;;;16.30;96.80;;;;;;4851508;29;20465;-85
2023/07/06 03:17:00;;;;;;;5.17;2.40;;;16.50;96.70;;;;;;4853736;29;20493;-82
2023/07/06 03:19:27;;;;;;;2.27;1.90;;;16.60;96.10;;;;;;4863103;29;20492;-83
2023/07/06 03:21:58;;;;;;;3.60;2.00;;;16.60;95.70;;;;;;4853950;29;20485;-83
2023/07/06 03:24:26;;;;;;;1.97;1.80;;;16.50;95.70;;;;;;4854659;29;20461;-84
2023/07/06 03:26:54;;;;;;;2.57;2.33;;;16.50;95.50;;;;;;4863492;29;20511;-82
2023/07/06 03:29:21;;;;;;;3.07;2.17;;;16.50;95.70;;;;;;4869943;29;20507;-82
2023/07/06 03:31:48;;;;;;;2.60;1.60;;;16.50;95.80;;;;;;4857259;29;20465;-83
2023/07/06 03:34:18;;;;;;;2.13;1.97;;;16.30;95.80;;;;;;4862353;29;20451;-85
2023/07/06 03:36:45;;;;;;;4.53;2.60;;;16.20;95.80;;;;;;4870667;29;20498;-85
2023/07/06 03:39:15;;;;;;;4.20;2.37;;;16.30;96.30;;;;;;4861175;29;20469;-83
2023/07/06 03:41:42;;;;;;;3.73;2.00;;;16.20;96.40;;;;;;4872653;29;20475;-83
2023/07/06 03:44:11;;;;;;;2.13;1.93;;;16.20;96.70;;;;;;4871803;29;20479;-83
2023/07/06 03:46:38;;;;;;;5.10;2.40;;;16.20;96.70;;;;;;4861464;29;20465;-82
2023/07/06 03:49:10;;;;;;;3.53;1.90;;;16.00;96.90;;;;;;4856227;29;20459;-84
2023/07/06 03:51:46;;;;;;;3.40;2.40;;;16.00;97.30;;;;;;4871025;29;20511;-84
2023/07/06 03:54:13;;;;;;;2.30;2.10;;;16.00;97.10;;;;;;4859960;29;20467;-84
2023/07/06 03:56:39;;;;;;;3.83;2.13;;;16.00;97.30;;;;;;4863676;29;20483;-84
2023/07/06 03:59:09;;;;;;;5.60;2.20;;;15.90;97.50;;;;;;4856329;29;20588;-84
2023/07/06 04:01:36;;;;;;;3.90;2.60;;;15.90;97.40;;;;;;4854728;29;20557;-84
2023/07/06 04:04:06;;;;;;;2.60;2.40;;;15.90;97.50;;;;;;4867944;29;20517;-83
2023/07/06 04:06:40;;;;;;;3.23;2.33;;;15.90;97.60;;;;;;4860475;29;20464;-84
2023/07/06 04:09:09;;;;;;;1.83;1.73;;;16.00;97.60;;;;;;4857146;29;20499;-84
2023/07/06 04:11:37;;;;;;;5.60;2.80;;;15.90;97.50;;;;;;4869770;29;20464;-84
2023/07/06 04:14:06;;;;;;;3.17;1.90;;;16.10;97.20;;;;;;4860363;29;21015;-84
2023/07/06 04:16:33;;;;;;;2.50;1.80;;;16.00;97.10;;;;;;4871847;29;20492;-83
2023/07/06 04:19:02;;;;;;;5.30;2.60;;;16.10;97.10;;;;;;4873866;29;22254;-84
2023/07/06 04:21:30;;;;;;;3.67;1.93;;;16.20;97.00;;;;;;4859763;29;20484;-85
2023/07/06 04:23:57;;;;;;;4.93;2.80;;;16.10;96.60;;;;;;4871402;29;20447;-83
2023/07/06 04:26:24;;;;;;;5.53;2.30;;;16.10;96.70;;;;;;4873586;29;20527;-84
2023/07/06 04:28:51;;;;;;;2.93;2.63;;;16.10;96.60;;;;;;4866485;29;20478;-82
2023/07/06 04:31:18;;;;;;;2.40;2.20;;;16.00;96.70;;;;;;4853265;29;20458;-83
2023/07/06 04:33:45;;;;;;;3.37;2.23;;;16.00;96.60;;;;;;4869974;29;20524;-83
2023/07/06 04:36:15;;;;;;;3.93;1.77;;;16.10;96.80;;;;;;4869907;29;20491;-82
2023/07/06 04:38:42;;;;;;;5.23;2.30;;;16.10;96.60;;;;;;4878262;29;20437;-82
2023/07/06 04:41:09;;;;;;;3.87;2.57;;;16.10;96.40;;;;;;4884038;29;20508;-82
2023/07/06 04:43:36;;;;;;;5.70;2.70;;;16.10;96.70;;;;;;4873855;29;20453;-84
2023/07/06 04:46:03;;;;;;;4.20;2.80;;;16.10;96.60;;;;;;4887871;29;20549;-84
2023/07/06 04:48:33;;;;;;;4.03;2.40;;;16.00;96.80;;;;;;4887890;29;20967;-84
2023/07/06 04:51:00;;;;;;;6.40;2.43;;;15.90;96.60;;;;;;4882333;29;20531;-83
2023/07/06 04:53:28;;;;;;;5.80;2.13;;;16.00;96.80;;;;;;4888270;29;20467;-81
2023/07/06 04:55:59;;;;;;;3.83;2.17;;;16.10;96.40;;;;;;4890081;29;20498;-82
2023/07/06 04:58:28;;;;;;;2.23;1.90;;;16.10;96.40;;;;;;4889931;29;20446;-83
2023/07/06 05:00:56;;;;;;;2.90;1.83;;;16.10;96.30;;;;;;4889565;29;20478;-83
2023/07/06 05:03:23;;;;;;;3.10;2.10;;;16.00;96.70;;;;;;4890023;29;20448;-82
2023/07/06 05:05:50;;;;;;;4.80;2.10;;;16.10;96.60;;;;;;4883447;29;20460;-85
2023/07/06 05:08:19;;;;;;;5.03;2.37;;;16.20;96.40;;;;;;4864561;29;20456;-81
2023/07/06 05:10:51;;;;;;;2.60;2.40;;;16.30;96.20;;;;;;4877578;29;20532;-85
2023/07/06 05:13:20;;;;;;;2.37;1.67;;;16.40;96.00;;;;;;4860615;29;20472;-85
2023/07/06 05:15:51;;;;;;;4.60;1.57;;;16.40;96.00;;;;;;4869945;29;21285;-82
2023/07/06 05:18:19;;;;;;;4.30;2.67;;;16.40;95.50;;;;;;4869285;29;20461;-84
2023/07/06 05:20:49;;;;;;;2.23;2.00;;;16.50;95.40;;;;;;4873423;29;20488;-83
2023/07/06 05:23:18;;;;;;;3.27;2.40;;;16.60;95.40;;;;;;4872642;29;20457;-82
2023/07/06 05:25:46;;;;;;;2.30;2.10;;;16.70;95.10;;;;;;4856927;29;20598;-83
2023/07/06 05:28:19;;;;;;;2.17;1.80;;;16.60;95.10;;;;;;4859047;29;20497;-84
2023/07/06 05:30:47;;;;;;;3.73;2.30;;;16.60;95.10;;;;;;4851511;29;20474;-84
2023/07/06 05:33:14;;;;;;;2.17;1.67;;;16.70;95.00;;;;;;4866860;29;20491;-84
2023/07/06 05:35:42;;;;;;;4.50;2.20;;;16.80;94.60;;;;;;4823269;29;20485;-82
2023/07/06 05:38:10;;;;;;;4.30;2.00;;;16.80;94.40;;;;;;4868414;29;20536;-84
2023/07/06 05:40:41;;;;;;;2.60;1.93;;;16.80;94.50;;;;;;4849533;29;21073;-83
2023/07/06 05:43:09;;;;;;;2.27;1.67;;;16.70;94.70;;;;;;4859822;29;20540;-83
2023/07/06 05:45:37;;;;;;;4.50;1.80;;;16.60;94.60;;;;;;4850909;29;20507;-83
2023/07/06 05:48:04;;;;;;;2.73;1.67;;;16.50;94.90;;;;;;4869007;29;20496;-82
2023/07/06 05:50:31;;;;;;;4.10;3.70;;;16.50;95.10;;;;;;4866116;29;20505;-83
2023/07/06 05:53:02;;;;;;;3.00;2.13;;;16.80;94.80;;;;;;4853146;29;20489;-83
2023/07/06 05:55:31;;;;;;;3.43;2.20;;;17.00;94.40;;;;;;4868925;29;20488;-81
2023/07/06 05:57:58;;;;;;;3.53;2.07;;;17.00;94.10;;;;;;4872554;29;20465;-84
2023/07/06 06:00:25;;;;;;;3.50;2.07;;;16.90;94.40;;;;;;4868730;29;20485;-82
2023/07/06 06:02:52;;;;;;;3.87;2.20;;;16.80;94.40;;;;;;4881062;29;20469;-81
2023/07/06 06:05:19;;;;;;;4.43;1.97;;;17.00;94.20;;;;;;4884927;29;20453;-85
2023/07/06 06:07:46;;;;;;;2.50;1.63;;;16.90;94.30;;;;;;4887248;29;20565;-82
2023/07/06 06:10:13;;;;;;;4.07;2.83;;;17.10;94.00;;;;;;4887481;29;20493;-83
2023/07/06 06:12:41;;;;;;;4.70;2.20;;;16.90;94.10;;;;;;4888493;29;20460;-84
2023/07/06 06:15:08;;;;;;;2.43;2.10;;;17.10;94.20;;;;;;4889879;29;20457;-84
2023/07/06 06:17:37;;;;;;;3.27;1.97;;;17.10;94.10;;;;;;4887754;29;20528;-82
2023/07/06 06:20:06;;;;;;;5.30;1.80;;;17.40;93.40;;;;;;4877865;29;20473;-83
2023/07/06 06:22:33;;;;;;;1.77;1.43;;;17.40;93.10;;;;;;4876190;29;20459;-84
2023/07/06 06:25:05;;;;;;;4.37;2.37;;;17.30;93.00;;;;;;4877492;29;20463;-84
2023/07/06 06:27:32;;;;;;;2.10;1.60;;;17.30;93.10;;;;;;4887078;29;20466;-84
2023/07/06 06:29:59;;;;;;;3.20;1.50;;;17.20;93.30;;;;;;4887153;29;20603;-85
2023/07/06 06:32:26;;;;;;;3.80;1.50;;;17.10;93.70;;;;;;4885335;29;20560;-84
2023/07/06 06:34:53;;;;;;;2.30;1.87;;;17.60;93.10;;;;;;4887008;29;20452;-86
2023/07/06 06:37:20;;;;;;;4.77;1.43;;;17.90;92.70;;;;;;4882892;29;20520;-85
2023/07/06 06:39:51;;;;;;;5.83;1.40;;;17.80;91.80;;;;;;4878125;29;20877;-84
2023/07/06 06:42:19;;;;;;;2.67;1.60;;;17.50;92.00;;;;;;4869387;29;20616;-84
2023/07/06 06:44:46;;;;;;;2.93;1.67;;;17.30;92.20;;;;;;4871136;29;20449;-85
2023/07/06 06:47:16;;;;;;;3.00;1.80;;;17.30;92.60;;;;;;4866591;29;20500;-84
2023/07/06 06:49:44;;;;;;;7.90;2.33;;;17.40;92.40;;;;;;4866258;29;20464;-85
2023/07/06 06:52:13;;;;;;;2.40;1.70;;;17.40;92.50;;;;;;4870330;29;20484;-84
2023/07/06 06:54:41;;;;;;;3.87;1.20;;;17.50;92.20;;;;;;4867959;29;20465;-84
2023/07/06 06:57:13;;;;;;;2.17;1.03;;;17.60;92.10;;;;;;4866607;29;20476;-82
2023/07/06 06:59:40;;;;;;;1.67;1.20;;;17.70;91.90;;;;;;4860488;29;20480;-84
2023/07/06 07:02:08;;;;;;;3.10;1.50;;;17.90;91.50;;;;;;4873292;29;20490;-84
2023/07/06 07:04:35;;;;;;;2.30;1.40;;;17.90;91.20;;;;;;4876284;29;21252;-84
2023/07/06 07:07:06;;;;;;;2.37;1.17;;;18.40;90.60;;;;;;4861660;29;20497;-84
2023/07/06 07:09:34;;;;;;;2.90;1.27;;;18.70;89.80;;;;;;4875220;29;20461;-84
2023/07/06 07:12:01;;;;;;;5.60;1.97;;;18.80;89.00;;;;;;4871825;29;20453;-83
2023/07/06 07:14:30;;;;;;;2.60;1.33;;;18.60;88.70;;;;;;4872711;29;21051;-84
2023/07/06 07:17:01;;;;;;;3.20;1.80;;;18.40;89.20;;;;;;4873784;29;20483;-85
2023/07/06 07:19:32;;;;;;;4.50;1.70;;;18.30;89.60;;;;;;4882700;29;20493;-82
2023/07/06 07:22:00;;;;;;;1.80;1.23;;;18.30;90.00;;;;;;4886004;29;20460;-85
2023/07/06 07:24:32;;;;;;;1.67;0.97;;;18.70;89.20;;;;;;4869953;29;20445;-83
2023/07/06 07:27:02;;;;;;;2.43;1.00;;;18.90;88.00;;;;;;4881587;29;20783;-84
2023/07/06 07:29:30;;;;;;;1.70;1.57;;;19.30;86.80;;;;;;4884839;29;21138;-84
2023/07/06 07:31:57;;;;;;;4.53;1.47;;;19.10;86.60;;;;;;4882477;29;20452;-85
2023/07/06 07:34:35;;;;;;;1.90;1.17;;;18.90;87.30;;;;;;4872256;29;20474;-85
2023/07/06 07:37:03;;;;;;;1.53;1.43;;;19.00;86.90;;;;;;4864441;29;20477;-84
2023/07/06 07:39:33;;;;;;;4.00;1.70;;;18.80;87.50;;;;;;4882201;29;20441;-85
2023/07/06 07:42:02;;;;;;;2.77;1.23;;;18.80;87.70;;;;;;4868339;29;20520;-84
2023/07/06 07:44:29;;;;;;;3.13;1.30;;;18.70;88.50;;;;;;4869376;29;20505;-80
2023/07/06 07:46:58;;;;;;;2.30;1.30;;;18.80;87.80;;;;;;4880943;29;21298;-84
2023/07/06 07:49:26;;;;;;;1.43;1.30;;;18.80;87.60;;;;;;4873876;29;20472;-82
2023/07/06 07:51:56;;;;;;;3.87;1.20;;;18.80;87.70;;;;;;4872475;29;20457;-85
2023/07/06 07:54:24;;;;;;;2.03;1.20;;;19.30;86.40;;;;;;4867001;29;20499;-82
2023/07/06 07:56:57;;;;;;;3.00;1.60;;;19.50;84.60;;;;;;4870335;29;20464;-83
2023/07/06 07:59:25;;;;;;;1.50;1.00;;;19.60;83.40;;;;;;4861796;29;20469;-81
2023/07/06 08:01:52;;;;;;;2.57;1.10;;;19.90;82.50;;;;;;4861408;29;20520;-84
2023/07/06 08:04:27;;;;;;;2.53;1.10;;;20.10;82.00;;;;;;4868552;29;20495;-83
2023/07/06 08:06:58;;;;;;;1.20;0.93;;;20.40;79.90;;;;;;4845823;29;20605;-82
2023/07/06 08:09:28;;;;;;;8.13;1.87;;;20.40;79.60;;;;;;4857123;29;20531;-83
2023/07/06 08:12:03;;;;;;;2.13;1.20;;;20.40;79.80;;;;;;4871212;29;20536;-83
2023/07/06 08:14:42;;;;;;;2.13;1.47;;;20.20;79.60;;;;;;4865502;29;20460;-83
2023/07/06 08:17:16;;;;;;;2.00;1.27;;;19.90;80.70;;;;;;4863016;29;20493;-83
2023/07/06 08:19:53;;;;;;;1.67;1.00;;;19.70;81.20;;;;;;4851818;29;20465;-86
2023/07/06 08:22:40;;;;;;;1.80;1.03;;;19.90;81.30;;;;;;4868187;29;20461;-83
2023/07/06 08:25:08;;;;;;;1.00;0.87;;;20.10;80.30;;;;;;4866663;29;20468;-86
2023/07/06 08:27:47;;;;;;;2.23;2.13;;;20.10;79.90;;;;;;4866483;29;20540;-84
2023/07/06 08:30:14;;;;;;;1.30;1.20;;;20.10;78.70;;;;;;4868833;29;20532;-84
2023/07/06 08:32:41;;;;;;;2.50;1.00;;;21.30;74.50;;;;;;4852176;29;20474;-83
2023/07/06 08:35:10;;;;;;;1.00;0.87;;;21.50;72.20;;;;;;4855586;29;21024;-83
2023/07/06 08:37:37;;;;;;;1.10;0.97;;;21.30;73.00;;;;;;4858578;29;20456;-83
2023/07/06 08:40:14;;;;;;;1.77;1.40;;;21.50;71.70;;;;;;4865106;29;20484;-82
2023/07/06 08:42:48;;;;;;;2.63;1.40;;;21.20;73.00;;;;;;4856246;29;20468;-84
2023/07/06 08:45:22;;;;;;;2.60;0.97;;;21.10;74.40;;;;;;4871724;29;20471;-85
2023/07/06 08:47:50;;;;;;;1.27;1.17;;;21.90;70.50;;;;;;4860477;29;20476;-85
2023/07/06 08:50:25;;;;;;;1.93;1.37;;;21.60;71.80;;;;;;4868317;29;21601;-84
2023/07/06 08:52:53;;;;;;;1.67;1.20;;;21.60;72.00;;;;;;4867491;29;20579;-84
2023/07/06 08:55:22;;;;;;;2.27;1.20;;;21.60;71.80;;;;;;4865779;29;20496;-83
2023/07/06 08:57:52;;;;;;;3.90;1.03;;;21.70;70.90;;;;;;4864226;29;20484;-84
2023/07/06 09:00:23;;;;;;;1.57;0.80;;;22.40;69.00;;;;;;4861902;29;20488;-82
2023/07/06 09:02:55;;;;;;;3.03;1.07;;;22.30;67.90;;;;;;4863846;29;20457;-84
2023/07/06 09:05:24;;;;;;;3.57;1.33;;;22.50;67.40;;;;;;4864584;29;20552;-84
2023/07/06 09:07:53;;;;;;;0.80;0.70;;;22.70;67.20;;;;;;4859741;29;20536;-84
2023/07/06 09:10:26;;;;;;;2.23;0.87;;;23.60;63.70;;;;;;4851970;29;20465;-83
2023/07/06 09:13:15;;;;;;;2.00;1.07;;;23.90;60.60;;;;;;4853655;29;20461;-84
2023/07/06 09:15:44;;;;;;;1.90;1.00;;;23.50;61.90;;;;;;4865776;29;20464;-84
2023/07/06 09:18:15;;;;;;;1.30;0.87;;;23.20;62.00;;;;;;4863410;29;20469;-83
2023/07/06 09:20:45;;;;;;;2.00;1.03;;;23.50;61.00;;;;;;4852963;29;20492;-82
2023/07/06 09:23:14;;;;;;;3.10;1.10;;;23.70;60.00;;;;;;4862276;29;20453;-83
2023/07/06 09:25:45;;;;;;;2.20;0.93;;;23.90;59.40;;;;;;4860380;29;20480;-82
2023/07/06 09:28:26;;;;;;;1.57;0.80;;;24.90;58.20;;;;;;4861316;29;20491;-84
2023/07/06 09:31:21;;;;;;;2.30;1.10;;;25.40;55.40;;;;;;4849028;29;20496;-81
2023/07/06 09:33:50;;;;;;;1.80;1.07;;;24.90;55.10;;;;;;4856100;29;20479;-83
2023/07/06 09:36:23;;;;;;;1.57;1.10;;;24.80;55.70;;;;;;4867605;29;20481;-83
2023/07/06 09:38:50;;;;;;;4.33;1.07;;;25.00;54.60;;;;;;4856738;29;20461;-84
2023/07/06 09:41:22;;;;;;;1.50;1.10;;;25.20;54.50;;;;;;4852003;29;20572;-83
2023/07/06 09:43:59;;;;;;;1.63;0.73;;;25.80;53.20;;;;;;4866752;29;20456;-83
2023/07/06 09:46:31;;;;;;;1.47;0.93;;;28.70;49.10;;;;;;4860422;29;20484;-85
2023/07/06 09:48:59;;;;;;;2.30;1.20;;;28.70;46.50;;;;;;4854683;29;20476;-83
2023/07/06 09:51:38;;;;;;;2.80;1.23;;;28.40;46.30;;;;;;4854319;29;20457;-83
2023/07/06 09:54:44;;;;;;;1.43;0.83;;;28.20;46.70;;;;;;4871246;29;20452;-83
2023/07/06 09:57:15;;;;;;;1.63;1.20;;;28.40;45.20;;;;;;4853483;29;20495;-83
2023/07/06 09:59:52;;;;;;;1.30;1.00;;;28.70;44.60;;;;;;4866664;29;20497;-84
2023/07/06 10:02:34;;;;;;;1.00;0.90;;;29.10;43.50;;;;;;4868474;29;20502;-83
2023/07/06 10:05:28;;;;;;;2.20;1.00;;;29.50;42.60;;;;;;4871767;29;20469;-84
2023/07/06 10:08:05;;;;;;;1.57;0.80;;;28.40;43.00;;;;;;4879967;29;20449;-83
2023/07/06 10:10:35;;;;;;;2.17;1.10;;;27.80;44.50;;;;;;4884077;29;20620;-85
2023/07/06 10:13:09;;;;;;;2.33;0.80;;;29.60;43.10;;;;;;4883274;29;20451;-86
2023/07/06 10:16:06;;;;;;;1.07;0.77;;;29.60;41.10;;;;;;4861177;29;21129;-84
2023/07/06 10:18:49;;;;;;;1.00;0.73;;;29.40;41.00;;;;;;4867584;29;20532;-82
2023/07/06 10:21:31;;;;;;;2.03;1.33;;;31.10;38.90;;;;;;4865672;29;20571;-84
2023/07/06 10:24:37;;;;;;;0.70;0.70;;;31.10;37.20;;;;;;4872317;29;20467;-85
2023/07/06 10:27:17;;;;;;;1.43;1.00;;;29.70;39.00;;;;;;4876367;29;20490;-84
2023/07/06 10:29:50;;;;;;;2.50;0.80;;;28.90;40.80;;;;;;4867832;29;20468;-84
2023/07/06 10:32:31;;;;;;;1.70;0.80;;;29.30;40.00;;;;;;4855764;29;20480;-83
2023/07/06 10:35:07;;;;;;;1.47;0.70;;;30.20;38.50;;;;;;4868541;29;20510;-82
2023/07/06 10:37:36;;;;;;;0.83;0.50;;;29.20;39.90;;;;;;4852777;29;20478;-85
2023/07/06 10:40:21;;;;;;;1.17;0.80;;;29.20;40.00;;;;;;4858297;29;20505;-84
2023/07/06 10:43:13;;;;;;;0.90;0.80;;;29.20;39.40;;;;;;4873863;29;20457;-83
2023/07/06 10:45:51;;;;;;;0.80;0.70;;;29.20;39.60;;;;;;4878818;29;20479;-83
2023/07/06 10:48:23;;;;;;;0.60;0.60;;;29.00;39.60;;;;;;4868578;29;20520;-85
2023/07/06 10:51:17;;;;;;;0.97;0.70;;;29.90;38.70;;;;;;4855495;29;20450;-83
2023/07/06 10:54:06;;;;;;;1.20;0.70;;;28.60;39.80;;;;;;4870046;29;20470;-82
2023/07/06 10:56:41;;;;;;;0.70;0.70;;;27.70;41.30;;;;;;4865171;29;20483;-83
2023/07/06 10:59:23;;;;;;;0.83;0.60;;;28.10;41.50;;;;;;4885199;29;20445;-82
2023/07/06 11:02:18;;;;;;;0.80;0.63;;;28.20;40.40;;;;;;4872284;29;20487;-84
2023/07/06 11:05:17;;;;;;;0.57;0.57;;;29.00;38.40;;;;;;4875720;29;20499;-85
2023/07/06 11:07:50;;;;;;;0.70;0.67;;;28.10;39.00;;;;;;4876249;29;20452;-84
2023/07/06 11:10:24;;;;;;;0.90;0.80;;;28.10;39.40;;;;;;4862482;29;20520;-82
2023/07/06 11:13:01;;;;;;;1.00;0.70;;;28.40;38.70;;;;;;4869338;29;20731;-84
2023/07/06 11:15:41;;;;;;;1.10;0.70;;;28.60;38.40;;;;;;4870278;29;20485;-83
2023/07/06 11:18:17;;;;;;;0.90;0.60;;;29.30;38.10;;;;;;4855949;29;20452;-84
2023/07/06 11:20:51;;;;;;;1.17;0.67;;;28.90;38.20;;;;;;4868418;29;20496;-82
2023/07/06 11:23:40;;;;;;;1.20;0.70;;;28.80;38.60;;;;;;4869959;29;20625;-83
2023/07/06 11:26:26;;;;;;;1.13;0.70;;;28.60;38.70;;;;;;4868017;29;20469;-83
2023/07/06 11:28:53;;;;;;;1.60;1.00;;;28.50;38.60;;;;;;4866453;29;20458;-82
2023/07/06 11:31:45;;;;;;;1.37;1.33;;;28.30;39.80;;;;;;4853864;29;20485;-85
2023/07/06 11:34:56;;;;;;;0.87;0.70;;;28.40;39.60;;;;;;4872369;29;20525;-82
2023/07/06 11:37:54;;;;;;;0.77;0.67;;;28.50;39.30;;;;;;5205133;23;20546;-84
2023/07/06 11:41:05;;;;;;;0.70;0.70;;;28.20;39.20;;;;;;4879350;29;20490;-84
2023/07/06 11:43:38;;;;;;;2.00;0.80;;;28.40;39.40;;;;;;4863549;29;20468;-84
2023/07/06 11:46:08;;;;;;;0.80;0.70;;;28.20;39.20;;;;;;4880018;29;20501;-85
2023/07/06 11:49:15;;;;;;;1.00;1.00;;;29.50;37.60;;;;;;4865790;29;20465;-85
2023/07/06 11:51:44;;;;;;;1.00;0.80;;;29.00;37.70;;;;;;4864233;29;20472;-84
2023/07/06 11:54:29;;;;;;;1.30;1.20;;;27.50;39.20;;;;;;4866676;29;20473;-84
2023/07/06 11:57:24;;;;;;;1.33;0.90;;;26.80;41.00;;;;;;4869913;29;20484;-83
2023/07/06 12:02:56;;;;;;;0.83;0.83;;;27.50;39.70;;;;;;4867503;29;20524;-83
2023/07/06 12:05:42;;;;;;;1.87;1.00;;;27.40;39.40;;;;;;4881998;29;21504;-83
2023/07/06 12:08:27;;;;;;;1.33;0.70;;;27.10;39.30;;;;;;4874658;29;20488;-84
2023/07/06 12:11:18;;;;;;;2.93;1.30;;;27.40;38.90;;;;;;4875162;29;20458;-84
2023/07/06 12:13:52;;;;;;;4.80;1.00;;;27.20;39.40;;;;;;4875902;29;20556;-84
2023/07/06 12:16:24;;;;;;;2.30;0.80;;;26.90;39.80;;;;;;4858514;29;20481;-84
2023/07/06 12:19:08;;;;;;;0.93;0.80;;;27.30;39.60;;;;;;4868764;29;20458;-85
2023/07/06 12:21:51;;;;;;;0.90;0.80;;;27.20;39.40;;;;;;4873381;29;20554;-84
2023/07/06 12:24:21;;;;;;;1.50;0.90;;;27.30;39.40;;;;;;4859958;29;20461;-82
2023/07/06 12:26:55;;;;;;;0.80;0.60;;;27.60;38.70;;;;;;4858028;29;21486;-85
2023/07/06 12:29:26;;;;;;;0.80;0.80;;;28.00;38.40;;;;;;4874592;29;20479;-81
2023/07/06 12:32:00;;;;;;;2.40;0.80;;;28.00;37.60;;;;;;4865499;29;20508;-84
2023/07/06 12:34:32;;;;;;;1.37;0.90;;;28.10;37.50;;;;;;4874412;29;20468;-83
2023/07/06 12:37:02;;;;;;;1.87;1.10;;;27.60;37.70;;;;;;4863757;29;20480;-84
2023/07/06 12:39:37;;;;;;;0.97;0.90;;;27.40;38.50;;;;;;4870206;29;20472;-83
2023/07/06 12:42:06;;;;;;;1.63;1.30;;;27.30;38.90;;;;;;4864676;29;20564;-85
2023/07/06 12:44:34;;;;;;;2.53;0.87;;;27.10;39.00;;;;;;4846901;29;20465;-84
2023/07/06 12:47:18;;;;;;;1.10;1.00;;;26.90;39.40;;;;;;4855701;29;20552;-85
2023/07/06 12:49:47;;;;;;;0.97;0.87;;;27.00;39.60;;;;;;4885356;29;20501;-84
2023/07/06 12:52:23;;;;;;;1.00;0.90;;;27.60;40.30;;;;;;4894640;29;20437;-85
2023/07/06 12:54:53;;;;;;;0.83;0.70;;;27.30;39.30;;;;;;4870888;29;20475;-84
2023/07/06 12:57:24;;;;;;;0.70;0.70;;;27.50;38.90;;;;;;4861610;29;21554;-85
2023/07/06 12:59:56;;;;;;;3.43;0.90;;;28.50;37.90;;;;;;4854522;29;20465;-82
2023/07/06 13:02:29;;;;;;;1.10;1.00;;;28.50;37.40;;;;;;4851191;29;20558;-83
2023/07/06 13:05:14;;;;;;;1.17;1.07;;;28.00;37.60;;;;;;4866737;29;20468;-84
2023/07/06 13:07:42;;;;;;;1.27;0.90;;;27.70;38.40;;;;;;4868572;29;20461;-80
2023/07/06 13:10:21;;;;;;;1.20;1.10;;;27.40;38.90;;;;;;4869852;29;20480;-84
2023/07/06 13:12:54;;;;;;;3.50;1.10;;;27.40;38.80;;;;;;4873475;29;20477;-84
2023/07/06 13:15:26;;;;;;;0.80;0.73;;;27.50;38.70;;;;;;4858307;29;20485;-85
2023/07/06 13:18:01;;;;;;;1.00;0.80;;;28.10;38.60;;;;;;4870117;29;20819;-82
2023/07/06 13:20:34;;;;;;;1.90;0.90;;;28.80;37.90;;;;;;4869091;29;20476;-83